Time;durP1;ratioP1;P1;durP2;ratioP2;P2;SDS_P1;SDS_P2;PMS_P1;PMS_P2;Temp;Humidity;BMP_temperature;BMP_pressure;BME280_temperature;BME280_humidity;BME280_pressure;Samples;Min_cycle;Max_cycle;Signal;HPM_P1;HPM_P2
2023/08/17 00:00:18;;;;;;;3.57;1.83;;;;;;;-145.18;100.00;46652.59;5024625;28;20472;-59
2023/08/17 00:02:43;;;;;;;4.70;1.53;;;;;;;-145.18;100.00;46650.63;5026582;28;20113;-59
2023/08/17 00:05:09;;;;;;;4.93;1.80;;;;;;;-145.18;100.00;46648.69;5029694;28;20105;-60
2023/08/17 00:07:35;;;;;;;3.80;1.90;;;;;;;-145.18;100.00;46650.63;5031010;28;20030;-59
2023/08/17 00:10:00;;;;;;;6.37;1.80;;;;;;;-145.18;100.00;46652.59;5029235;28;20036;-59
2023/08/17 00:12:26;;;;;;;4.93;1.80;;;;;;;-145.18;100.00;46652.59;5026624;28;20029;-59
2023/08/17 00:14:52;;;;;;;4.63;2.10;;;;;;;-145.18;100.00;46654.53;5014602;28;20390;-59
2023/08/17 00:17:17;;;;;;;5.30;1.80;;;;;;;-145.18;100.00;46650.63;5026530;28;20024;-59
2023/08/17 00:19:43;;;;;;;3.00;1.80;;;;;;;-145.18;100.00;46644.78;5023627;28;20025;-59
2023/08/17 00:22:08;;;;;;;6.90;2.10;;;;;;;-145.18;100.00;46650.63;5026773;28;20033;-59
2023/08/17 00:24:34;;;;;;;2.80;1.63;;;;;;;-145.18;100.00;46642.81;5028878;28;20041;-59
2023/08/17 00:26:59;;;;;;;5.57;1.93;;;;;;;-145.18;100.00;46652.59;5026610;28;20159;-60
2023/08/17 00:29:24;;;;;;;4.03;1.67;;;;;;;-145.18;100.00;46644.78;5026966;28;20125;-60
2023/08/17 00:31:51;;;;;;;5.53;2.10;;;;;;;-145.18;100.00;46648.69;5028961;28;20025;-59
2023/08/17 00:34:16;;;;;;;5.13;2.40;;;;;;;-145.18;100.00;46650.63;5033692;28;20056;-59
2023/08/17 00:36:41;;;;;;;3.20;2.00;;;;;;;-145.18;100.00;46652.59;5033034;28;20025;-60
2023/08/17 00:39:07;;;;;;;6.03;1.93;;;;;;;-145.18;100.00;46652.59;5032987;28;20029;-62
2023/08/17 00:41:32;;;;;;;7.63;1.73;;;;;;;-145.18;100.00;46654.53;5022797;28;20108;-61
2023/08/17 00:44:00;;;;;;;2.77;1.47;;;;;;;-145.18;100.00;46650.63;5018420;28;20033;-61
2023/08/17 00:46:26;;;;;;;6.53;1.80;;;;;;;-145.18;100.00;46654.53;5026261;28;20048;-62
2023/08/17 00:48:54;;;;;;;4.97;1.70;;;;;;;-145.18;100.00;46650.63;5019306;28;20115;-61
2023/08/17 00:51:21;;;;;;;3.60;2.57;;;;;;;-145.18;100.00;46650.63;5025912;28;20421;-62
2023/08/17 00:53:47;;;;;;;4.80;2.20;;;;;;;-145.18;100.00;46650.63;5020723;28;20035;-62
2023/08/17 00:56:13;;;;;;;7.53;2.13;;;;;;;-145.18;100.00;46648.69;5021176;28;20026;-62
2023/08/17 00:58:38;;;;;;;4.80;1.93;;;;;;;-145.18;100.00;46652.59;5027314;28;20513;-62
2023/08/17 01:01:03;;;;;;;5.40;2.40;;;;;;;-145.18;100.00;46654.53;5022994;28;20033;-62
2023/08/17 01:03:30;;;;;;;2.83;1.83;;;;;;;-145.18;100.00;46652.59;5023084;28;20049;-61
2023/08/17 01:05:56;;;;;;;3.30;1.90;;;;;;;-145.18;100.00;46648.69;5028585;28;20029;-62
2023/08/17 01:08:22;;;;;;;8.03;2.23;;;;;;;-145.18;100.00;46646.72;5027120;28;20527;-62
2023/08/17 01:11:17;;;;;;;6.50;2.00;;;;;;;-145.18;100.00;46640.88;5029668;28;20108;-62
2023/08/17 01:14:08;;;;;;;4.10;1.67;;;;;;;-145.18;100.00;46650.63;5031957;28;20025;-62
2023/08/17 01:16:41;;;;;;;2.83;1.80;;;;;;;-145.18;100.00;46642.81;5023453;28;20037;-62
2023/08/17 01:19:09;;;;;;;7.17;2.00;;;;;;;-145.18;100.00;46646.72;5027331;28;20017;-62
2023/08/17 01:21:43;;;;;;;3.70;1.67;;;;;;;-145.18;100.00;46650.63;5024203;28;20393;-62
2023/08/17 01:24:11;;;;;;;7.27;2.20;;;;;;;-145.18;100.00;46644.78;5014475;28;20033;-62
2023/08/17 01:26:36;;;;;;;1.80;1.30;;;;;;;-145.18;100.00;46650.63;5023080;28;20038;-61
2023/08/17 01:29:02;;;;;;;2.83;1.40;;;;;;;-145.18;100.00;46648.69;5029519;28;20040;-62
2023/08/17 01:31:32;;;;;;;3.97;1.90;;;;;;;-145.18;100.00;46652.59;5022071;28;20141;-62
2023/08/17 01:34:05;;;;;;;2.40;1.67;;;;;;;-145.18;100.00;46648.69;5029461;28;20009;-62
2023/08/17 01:36:35;;;;;;;3.00;1.53;;;;;;;-145.18;100.00;46650.63;5027381;28;20437;-61
2023/08/17 01:39:03;;;;;;;3.67;1.83;;;;;;;-145.18;100.00;46648.69;5026222;28;20053;-62
2023/08/17 01:41:30;;;;;;;7.03;1.80;;;;;;;-145.18;100.00;46654.53;5023319;28;20049;-62
2023/08/17 01:43:56;;;;;;;5.97;2.00;;;;;;;-145.18;100.00;46646.72;5014401;28;20022;-62
2023/08/17 01:46:22;;;;;;;4.37;1.57;;;;;;;-145.18;100.00;46648.69;5020113;28;20029;-62
2023/08/17 01:48:47;;;;;;;8.73;1.80;;;;;;;-145.18;100.00;46652.59;5018396;28;20030;-59
2023/08/17 01:51:19;;;;;;;4.43;2.10;;;;;;;-145.18;100.00;46652.59;5021329;28;20029;-60
2023/08/17 01:53:45;;;;;;;6.77;1.97;;;;;;;-145.18;100.00;46648.69;5025048;28;20056;-59
2023/08/17 01:56:10;;;;;;;5.33;1.93;;;;;;;-145.18;100.00;46650.63;5020057;28;20057;-59
2023/08/17 01:58:36;;;;;;;2.73;1.73;;;;;;;-145.18;100.00;46648.69;5017680;28;20030;-58
2023/08/17 02:01:01;;;;;;;4.40;1.87;;;;;;;-145.18;100.00;46650.63;5021940;28;20029;-59
2023/08/17 02:03:28;;;;;;;3.67;1.83;;;;;;;-145.18;100.00;46650.63;5019514;28;20037;-59
2023/08/17 02:05:56;;;;;;;4.60;1.90;;;;;;;-145.18;100.00;46646.72;5033188;28;20025;-60
2023/08/17 02:08:21;;;;;;;3.77;2.07;;;;;;;-145.18;100.00;46654.53;5024346;28;20164;-59
2023/08/17 02:10:46;;;;;;;3.40;2.10;;;;;;;-145.18;100.00;46650.63;5026645;28;20856;-59
2023/08/17 02:13:12;;;;;;;5.37;2.00;;;;;;;-145.18;100.00;46650.63;5026295;28;20108;-59
2023/08/17 02:15:39;;;;;;;2.53;1.60;;;;;;;-145.18;100.00;46654.53;5013540;28;20032;-60
2023/08/17 02:18:04;;;;;;;3.43;2.00;;;;;;;-145.18;100.00;46648.69;5016556;28;20493;-60
2023/08/17 02:20:30;;;;;;;4.50;2.50;;;;;;;-145.18;100.00;46646.72;5033041;28;20044;-60
2023/08/17 02:22:55;;;;;;;5.23;2.00;;;;;;;-145.18;100.00;46644.78;5032390;28;20671;-60
2023/08/17 02:25:20;;;;;;;5.47;1.53;;;;;;;-145.18;100.00;46650.63;5032007;28;20029;-60
2023/08/17 02:27:46;;;;;;;5.10;1.90;;;;;;;-145.18;100.00;46652.59;5029915;28;20025;-59
2023/08/17 02:30:12;;;;;;;4.87;1.70;;;;;;;-145.18;100.00;46648.69;5026034;28;20473;-60
2023/08/17 02:32:37;;;;;;;5.77;1.90;;;;;;;-145.18;100.00;46646.72;5024846;28;20029;-60
2023/08/17 02:35:03;;;;;;;6.40;1.67;;;;;;;-145.18;100.00;46648.69;5026381;28;20084;-60
2023/08/17 02:37:29;;;;;;;8.43;3.10;;;;;;;-145.18;100.00;46650.63;5012991;28;20405;-60
2023/08/17 02:39:54;;;;;;;2.77;1.73;;;;;;;-145.18;100.00;46650.63;5026943;28;20037;-60
2023/08/17 02:42:19;;;;;;;4.57;1.80;;;;;;;-145.18;100.00;46642.81;5031730;28;20036;-60
2023/08/17 02:44:45;;;;;;;5.00;1.67;;;;;;;-145.18;100.00;46642.81;5032413;28;20033;-60
2023/08/17 02:47:10;;;;;;;3.53;1.43;;;;;;;-145.18;100.00;46648.69;5030105;28;20485;-60
2023/08/17 02:49:36;;;;;;;3.53;1.90;;;;;;;-145.18;100.00;46640.88;5030623;28;20053;-60
2023/08/17 02:52:01;;;;;;;5.63;2.10;;;;;;;-145.18;100.00;46677.97;5031620;28;20048;-60
2023/08/17 02:54:26;;;;;;;4.47;2.33;;;;;;;-145.18;100.00;46660.41;5030316;28;20535;-61
2023/08/17 02:56:52;;;;;;;4.93;1.90;;;;;;;-145.18;100.00;46640.88;5029352;28;20040;-59
2023/08/17 02:59:17;;;;;;;5.33;2.20;;;;;;;-145.18;100.00;46677.97;5031503;28;20029;-62
2023/08/17 03:01:44;;;;;;;4.20;2.00;;;;;;;-145.18;100.00;46660.41;5029674;28;20446;-62
2023/08/17 03:04:09;;;;;;;4.20;1.80;;;;;;;-145.18;100.00;46660.41;5028817;28;20397;-63
2023/08/17 03:06:35;;;;;;;4.37;1.87;;;;;;;-145.18;100.00;46660.41;5029062;28;20021;-62
2023/08/17 03:09:00;;;;;;;6.07;2.43;;;;;;;-145.18;100.00;46660.41;5030089;28;20029;-62
2023/08/17 03:11:25;;;;;;;4.30;1.77;;;;;;;-145.18;100.00;46640.88;5030593;28;20051;-62
2023/08/17 03:13:52;;;;;;;2.53;1.70;;;;;;;-145.18;100.00;46660.41;5031817;28;20022;-62
2023/08/17 03:16:17;;;;;;;4.43;1.90;;;;;;;-145.18;100.00;46640.88;5030880;28;20059;-62
2023/08/17 03:18:43;;;;;;;3.57;1.57;;;;;;;-145.18;100.00;46638.91;5030627;28;20038;-62
2023/08/17 03:21:08;;;;;;;6.70;1.63;;;;;;;-145.18;100.00;46640.88;5030355;28;20509;-62
2023/08/17 03:23:34;;;;;;;8.37;1.90;;;;;;;-145.18;100.00;46677.97;5018731;28;20026;-62
2023/08/17 03:25:59;;;;;;;3.33;1.43;;;;;;;-145.18;100.00;46660.41;5013486;28;20034;-62
2023/08/17 03:28:25;;;;;;;5.23;1.63;;;;;;;-145.18;100.00;46638.91;5013585;28;20030;-62
2023/08/17 03:30:55;;;;;;;3.40;1.70;;;;;;;-145.18;100.00;46640.88;5011990;28;20454;-62
2023/08/17 03:33:20;;;;;;;3.50;2.00;;;;;;;-145.18;100.00;46677.97;5024735;28;20101;-62
2023/08/17 03:35:46;;;;;;;1.87;1.33;;;;;;;-145.18;100.00;46640.88;5028645;28;20105;-62
2023/08/17 03:38:11;;;;;;;4.47;1.70;;;;;;;-145.18;100.00;46676.03;5028292;28;20455;-62
2023/08/17 03:40:36;;;;;;;4.00;1.50;;;;;;;-145.18;100.00;46642.81;5025487;28;20116;-62
2023/08/17 03:43:02;;;;;;;4.97;1.50;;;;;;;-145.18;100.00;46640.88;5028950;28;20029;-62
2023/08/17 03:45:28;;;;;;;3.13;1.30;;;;;;;-145.18;100.00;46642.81;5026423;28;20033;-62
2023/08/17 03:47:54;;;;;;;4.90;1.90;;;;;;;-145.18;100.00;46638.91;5030282;28;20034;-62
2023/08/17 03:50:19;;;;;;;4.10;1.73;;;;;;;-145.18;100.00;46644.78;5028301;28;20040;-62
2023/08/17 03:52:44;;;;;;;3.93;1.63;;;;;;;-145.18;100.00;46640.88;5029774;28;20032;-62
2023/08/17 03:55:10;;;;;;;6.43;1.73;;;;;;;-145.18;100.00;46677.97;5027304;28;20385;-62
2023/08/17 03:57:35;;;;;;;7.03;2.20;;;;;;;-145.18;100.00;46644.78;5028914;28;20135;-62
2023/08/17 04:00:00;;;;;;;2.67;1.40;;;;;;;-145.18;100.00;46642.81;5015185;28;20487;-62
2023/08/17 04:02:26;;;;;;;4.40;1.90;;;;;;;-145.18;100.00;46644.78;5029023;28;20062;-62
2023/08/17 04:04:51;;;;;;;2.03;1.60;;;;;;;-145.18;100.00;46646.72;5025723;28;20500;-62
2023/08/17 04:07:23;;;;;;;7.37;2.20;;;;;;;-145.18;100.00;46642.81;5027912;28;20112;-62
2023/08/17 04:09:49;;;;;;;5.03;1.80;;;;;;;-145.18;100.00;46644.78;5028153;28;20025;-60
2023/08/17 04:12:14;;;;;;;5.03;1.67;;;;;;;-145.18;100.00;46640.88;5028499;28;20075;-60
2023/08/17 04:14:40;;;;;;;2.57;1.57;;;;;;;-145.18;100.00;46642.81;5033678;28;20017;-59
2023/08/17 04:17:06;;;;;;;6.10;2.20;;;;;;;-145.18;100.00;46638.91;5033843;28;20029;-59
2023/08/17 04:19:31;;;;;;;3.00;1.50;;;;;;;-145.18;100.00;46646.72;5033198;28;20040;-60
2023/08/17 04:21:56;;;;;;;7.13;1.90;;;;;;;-145.18;100.00;46642.81;5032545;28;20044;-59
2023/08/17 04:24:22;;;;;;;6.37;1.67;;;;;;;-145.18;100.00;46640.88;5026317;28;20127;-59
2023/08/17 04:26:47;;;;;;;3.50;1.90;;;;;;;-145.18;100.00;46644.78;5029595;28;20025;-59
2023/08/17 04:29:13;;;;;;;5.73;2.43;;;;;;;-145.18;100.00;46650.63;5017788;28;20025;-59
2023/08/17 04:31:38;;;;;;;5.23;1.83;;;;;;;-145.18;100.00;46648.69;5030973;28;20041;-59
2023/08/17 04:34:05;;;;;;;2.87;1.63;;;;;;;-145.18;100.00;46642.81;5030519;28;20671;-59
2023/08/17 04:36:30;;;;;;;4.13;1.70;;;;;;;-145.18;100.00;46646.72;5032999;28;20033;-59
2023/08/17 04:38:55;;;;;;;8.60;2.13;;;;;;;-145.18;100.00;46644.78;5028854;28;20091;-59
2023/08/17 04:41:21;;;;;;;4.53;2.00;;;;;;;-145.18;100.00;46648.69;5032581;28;20068;-59
2023/08/17 04:43:49;;;;;;;4.90;2.03;;;;;;;-145.18;100.00;46642.81;5030347;28;20508;-59
2023/08/17 04:46:14;;;;;;;9.53;1.90;;;;;;;-145.18;100.00;46640.88;5032476;28;20037;-60
2023/08/17 04:48:39;;;;;;;2.83;1.60;;;;;;;-145.18;100.00;46640.88;5032487;28;20075;-59
2023/08/17 04:51:05;;;;;;;6.47;1.80;;;;;;;-145.18;100.00;46642.81;5031505;28;20518;-59
2023/08/17 04:53:30;;;;;;;8.10;2.10;;;;;;;-145.18;100.00;46646.72;5032404;28;20163;-59
2023/08/17 04:55:55;;;;;;;5.73;2.00;;;;;;;-145.18;100.00;46638.91;5034596;28;20045;-59
2023/08/17 04:58:22;;;;;;;3.93;1.60;;;;;;;-145.18;100.00;46640.88;5028719;28;20061;-59
2023/08/17 05:00:47;;;;;;;6.60;2.10;;;;;;;-145.18;100.00;46640.88;5031583;28;20025;-60
2023/08/17 05:03:13;;;;;;;7.30;2.27;;;;;;;-145.18;100.00;46677.97;5031552;28;20026;-59
2023/08/17 05:05:38;;;;;;;5.73;2.00;;;;;;;-145.18;100.00;46642.81;5034610;28;20025;-59
2023/08/17 05:08:04;;;;;;;5.43;1.70;;;;;;;-145.18;100.00;46646.72;5029303;28;20025;-59
2023/08/17 05:10:30;;;;;;;6.97;2.33;;;;;;;-145.18;100.00;46642.81;5033728;28;20040;-59
2023/08/17 05:12:55;;;;;;;10.43;2.20;;;;;;;-145.18;100.00;46642.81;5015705;28;20030;-59
2023/08/17 05:15:21;;;;;;;4.23;1.70;;;;;;;-145.18;100.00;46642.81;5015243;28;20042;-59
2023/08/17 05:17:46;;;;;;;4.97;1.77;;;;;;;-145.18;100.00;46640.88;5013952;28;20113;-59
2023/08/17 05:20:15;;;;;;;7.50;2.00;;;;;;;-145.18;100.00;46644.78;5015618;28;20041;-62
2023/08/17 05:22:40;;;;;;;5.17;1.93;;;;;;;-145.18;100.00;46644.78;5026962;28;20041;-62
2023/08/17 05:25:06;;;;;;;3.57;1.90;;;;;;;-145.18;100.00;46644.78;5014771;28;20034;-62
2023/08/17 05:27:31;;;;;;;3.77;2.20;;;;;;;-145.18;100.00;46642.81;5017333;28;20022;-62
2023/08/17 05:29:56;;;;;;;3.33;1.83;;;;;;;-145.18;100.00;46636.94;5017935;28;20575;-61
2023/08/17 05:32:22;;;;;;;6.20;2.00;;;;;;;-145.18;100.00;46660.41;5022284;28;20121;-62
2023/08/17 05:34:47;;;;;;;6.37;2.07;;;;;;;-145.18;100.00;46642.81;5032869;28;20021;-62
2023/08/17 05:37:15;;;;;;;5.07;1.80;;;;;;;-145.18;100.00;46638.91;5031661;28;20063;-62
2023/08/17 05:39:40;;;;;;;5.77;1.90;;;;;;;-145.18;100.00;46640.88;5031825;28;20061;-62
2023/08/17 05:42:06;;;;;;;8.87;2.10;;;;;;;-145.18;100.00;46646.72;5026652;28;20113;-62
2023/08/17 05:44:32;;;;;;;4.43;2.37;;;;;;;-145.18;100.00;46660.41;5024233;28;20033;-62
2023/08/17 05:46:57;;;;;;;3.60;1.97;;;;;;;-145.18;100.00;46636.94;5030191;28;21100;-62
2023/08/17 05:49:23;;;;;;;5.43;2.50;;;;;;;-145.18;100.00;46644.78;5030215;28;20063;-62
2023/08/17 05:51:48;;;;;;;6.43;2.33;;;;;;;-145.18;100.00;46676.03;5026101;28;20033;-62
2023/08/17 05:54:13;;;;;;;7.43;2.00;;;;;;;-145.18;100.00;46644.78;5021293;28;20036;-62
2023/08/17 05:56:44;;;;;;;7.97;2.13;;;;;;;-145.18;100.00;46638.91;5018965;28;20040;-62
2023/08/17 05:59:10;;;;;;;4.63;2.07;;;;;;;-145.18;100.00;46638.91;5033230;28;20159;-62
2023/08/17 06:01:35;;;;;;;3.57;1.90;;;;;;;-145.18;100.00;46638.91;5026521;28;20022;-62
2023/08/17 06:04:01;;;;;;;4.37;2.07;;;;;;;-145.18;100.00;46640.88;5023374;28;20036;-62
2023/08/17 06:06:26;;;;;;;7.53;2.17;;;;;;;-145.18;100.00;46640.88;5021782;28;20026;-62
2023/08/17 06:08:52;;;;;;;7.43;2.20;;;;;;;-145.18;100.00;46646.72;5031900;28;20021;-62
2023/08/17 06:11:17;;;;;;;7.57;2.33;;;;;;;-145.18;100.00;46640.88;5021137;28;20080;-62
2023/08/17 06:13:43;;;;;;;5.37;1.90;;;;;;;-145.18;100.00;46638.91;5024825;28;20487;-62
2023/08/17 06:16:08;;;;;;;12.47;1.97;;;;;;;-145.18;100.00;46640.88;5021068;28;20486;-62
2023/08/17 06:18:34;;;;;;;4.47;2.00;;;;;;;-145.18;100.00;46640.88;5023315;28;20120;-62
2023/08/17 06:20:59;;;;;;;9.00;2.10;;;;;;;-145.18;100.00;46644.78;5026550;28;20393;-62
2023/08/17 06:23:25;;;;;;;6.87;1.90;;;;;;;-145.18;100.00;46640.88;5025940;28;20031;-62
2023/08/17 06:25:51;;;;;;;7.07;1.90;;;;;;;-145.18;100.00;46644.78;5020475;28;20054;-62
2023/08/17 06:28:17;;;;;;;5.17;1.77;;;;;;;-145.18;100.00;46640.88;5023702;28;20033;-59
2023/08/17 06:30:42;;;;;;;2.80;1.57;;;;;;;-145.18;100.00;46644.78;5024122;28;20049;-59
2023/08/17 06:33:07;;;;;;;3.83;1.73;;;;;;;-145.18;100.00;46646.72;5030481;28;20052;-59
2023/08/17 06:35:33;;;;;;;6.47;2.27;;;;;;;-145.18;100.00;46642.81;5030898;28;20017;-60
2023/08/17 06:37:58;;;;;;;2.50;1.60;;;;;;;-145.18;100.00;46642.81;5028655;28;20057;-59
2023/08/17 06:40:24;;;;;;;5.57;1.87;;;;;;;-145.18;100.00;46642.81;5025702;28;20030;-59
2023/08/17 06:42:50;;;;;;;6.03;2.07;;;;;;;-145.18;100.00;46644.78;5028303;28;20037;-60
2023/08/17 06:45:18;;;;;;;7.17;1.90;;;;;;;-145.18;100.00;46642.81;5026619;28;20122;-59
2023/08/17 06:47:45;;;;;;;3.67;1.90;;;;;;;-145.18;100.00;46644.78;5035468;28;20025;-59
2023/08/17 06:50:10;;;;;;;2.80;1.50;;;;;;;-145.18;100.00;46644.78;5028344;28;20036;-59
2023/08/17 06:52:36;;;;;;;4.93;1.80;;;;;;;-145.18;100.00;46642.81;5028610;28;20041;-60
2023/08/17 06:55:02;;;;;;;6.17;1.97;;;;;;;-145.18;100.00;46642.81;5024921;28;20067;-59
2023/08/17 06:57:28;;;;;;;6.63;2.07;;;;;;;-145.18;100.00;46646.72;5029861;28;20048;-59
2023/08/17 06:59:54;;;;;;;5.90;1.93;;;;;;;-145.18;100.00;46648.69;5026034;28;20022;-59
2023/08/17 07:02:20;;;;;;;6.33;1.53;;;;;;;-145.18;100.00;46644.78;5027139;28;20041;-59
2023/08/17 07:04:45;;;;;;;4.67;1.73;;;;;;;-145.18;100.00;46644.78;5027309;28;20025;-59
2023/08/17 07:07:11;;;;;;;5.77;1.80;;;;;;;-145.18;100.00;46646.72;5032056;28;20485;-60
2023/08/17 07:09:36;;;;;;;5.20;1.90;;;;;;;-145.18;100.00;46644.78;5023006;28;20079;-59
2023/08/17 07:12:02;;;;;;;5.80;3.00;;;;;;;-145.18;100.00;46644.78;5016999;28;20037;-60
2023/08/17 07:14:28;;;;;;;3.10;1.47;;;;;;;-145.18;100.00;46644.78;5020155;28;20445;-60
2023/08/17 07:16:53;;;;;;;3.00;2.17;;;;;;;-145.18;100.00;46648.69;5026773;28;20083;-60
2023/08/17 07:19:18;;;;;;;9.53;2.13;;;;;;;-145.18;100.00;46644.78;5023168;28;20041;-60
2023/08/17 07:21:44;;;;;;;5.30;2.70;;;;;;;-145.18;100.00;46644.78;5022566;28;20043;-59
2023/08/17 07:24:14;;;;;;;4.43;1.90;;;;;;;-145.18;100.00;46642.81;5031135;28;20443;-59
2023/08/17 07:26:39;;;;;;;5.53;1.83;;;;;;;-145.18;100.00;46640.88;5024643;28;20417;-60
2023/08/17 07:29:05;;;;;;;5.53;2.47;;;;;;;-145.18;100.00;46646.72;5023092;28;20033;-59
2023/08/17 07:31:31;;;;;;;3.80;2.03;;;;;;;-145.18;100.00;46648.69;5024054;28;20073;-59
2023/08/17 07:33:56;;;;;;;7.17;1.97;;;;;;;-145.18;100.00;46648.69;5017148;28;20048;-59
2023/08/17 07:36:21;;;;;;;4.33;1.73;;;;;;;-145.18;100.00;46652.59;5025598;28;20072;-59
2023/08/17 07:38:47;;;;;;;5.77;1.67;;;;;;;-145.18;100.00;46644.78;5020861;28;20393;-59
2023/08/17 07:41:12;;;;;;;3.90;2.30;;;;;;;-145.18;100.00;46648.69;5021370;28;20100;-60
2023/08/17 07:43:37;;;;;;;4.27;2.27;;;;;;;-145.18;100.00;46648.69;5029191;28;20148;-60
2023/08/17 07:46:03;;;;;;;8.63;2.10;;;;;;;-145.18;100.00;46644.78;5022170;28;20038;-59
2023/08/17 07:48:33;;;;;;;4.17;1.90;;;;;;;-145.18;100.00;46644.78;5020944;28;20041;-60
2023/08/17 07:50:59;;;;;;;4.67;1.90;;;;;;;-145.18;100.00;46650.63;5023120;28;20385;-59
2023/08/17 07:53:24;;;;;;;5.30;1.70;;;;;;;-145.18;100.00;46650.63;5029861;28;20026;-59
2023/08/17 07:55:49;;;;;;;3.87;1.83;;;;;;;-145.18;100.00;46658.44;5023150;28;20030;-59
2023/08/17 07:58:15;;;;;;;6.43;2.13;;;;;;;-145.18;100.00;46650.63;5018251;28;20045;-60
2023/08/17 08:00:40;;;;;;;4.57;1.90;;;;;;;-145.18;100.00;46660.41;5019495;28;20037;-60
2023/08/17 08:03:06;;;;;;;6.67;2.10;;;;;;;-145.18;100.00;46662.34;5028642;28;20104;-60
2023/08/17 08:05:31;;;;;;;4.00;2.00;;;;;;;-145.18;100.00;46654.53;5021546;28;20050;-60
2023/08/17 08:07:57;;;;;;;6.97;2.17;;;;;;;-145.18;100.00;46658.44;5006865;28;20024;-60
2023/08/17 08:10:22;;;;;;;4.27;2.00;;;;;;;-145.18;100.00;46652.59;5035167;28;20035;-60
2023/08/17 08:12:48;;;;;;;5.90;2.03;;;;;;;-145.18;100.00;46658.44;5034935;28;20481;-59
2023/08/17 08:15:13;;;;;;;6.20;2.00;;;;;;;-145.18;100.00;46658.44;5030732;28;20422;-60
2023/08/17 08:17:38;;;;;;;5.70;2.23;;;;;;;-145.18;100.00;46660.41;5045439;28;20104;-59
2023/08/17 08:20:05;;;;;;;7.07;2.30;;;;;;;-145.18;100.00;46664.31;5029825;28;20029;-60
2023/08/17 08:22:30;;;;;;;4.90;1.70;;;;;;;-145.18;100.00;46668.22;5029189;28;20053;-60
2023/08/17 08:24:57;;;;;;;10.50;2.60;;;;;;;-145.18;100.00;46670.16;5030333;28;20112;-60
2023/08/17 08:27:23;;;;;;;3.93;1.80;;;;;;;-145.18;100.00;46670.16;5024398;28;20389;-59
2023/08/17 08:29:48;;;;;;;9.07;3.00;;;;;;;-145.18;100.00;46668.22;5031750;28;20035;-59
2023/08/17 08:32:14;;;;;;;5.97;2.30;;;;;;;-145.18;100.00;46670.16;5026353;28;20129;-59
2023/08/17 08:34:39;;;;;;;5.70;2.47;;;;;;;-145.18;100.00;46666.25;5034760;28;20047;-60
2023/08/17 08:37:05;;;;;;;5.93;2.37;;;;;;;-145.18;100.00;46668.22;5029526;28;20032;-60
2023/08/17 08:39:30;;;;;;;4.20;2.10;;;;;;;-145.18;100.00;46664.31;5032161;28;20044;-60
2023/08/17 08:41:56;;;;;;;7.87;2.20;;;;;;;-145.18;100.00;46668.22;5031209;28;20554;-60
2023/08/17 08:44:22;;;;;;;5.70;2.43;;;;;;;-145.18;100.00;46666.25;5030977;28;20384;-59
2023/08/17 08:46:48;;;;;;;8.67;2.57;;;;;;;-145.18;100.00;46662.34;5028544;28;20049;-60
2023/08/17 08:49:19;;;;;;;7.87;2.37;;;;;;;-145.18;100.00;46664.31;5029788;28;20087;-63
2023/08/17 08:51:50;;;;;;;7.43;2.30;;;;;;;-145.18;100.00;46668.22;5027128;28;20018;-62
2023/08/17 08:54:24;;;;;;;6.37;2.20;;;;;;;-145.18;100.00;46666.25;5032979;28;20014;-63
2023/08/17 08:57:01;;;;;;;4.73;2.43;;;;;;;-145.18;100.00;46670.16;5030117;28;20029;-62
2023/08/17 08:59:27;;;;;;;6.90;2.67;;;;;;;-145.18;100.00;46670.16;5027735;28;20032;-62
2023/08/17 09:01:53;;;;;;;5.83;2.47;;;;;;;-145.18;100.00;46668.22;5029957;28;20092;-63
2023/08/17 09:04:19;;;;;;;7.47;3.03;;;;;;;-145.18;100.00;46668.22;5029861;28;20537;-62
2023/08/17 09:06:45;;;;;;;5.03;2.20;;;;;;;-145.18;100.00;46668.22;5033460;28;20061;-63
2023/08/17 09:09:14;;;;;;;7.17;2.47;;;;;;;-145.18;100.00;46672.13;5032827;28;20030;-63
2023/08/17 09:11:40;;;;;;;5.23;2.67;;;;;;;-145.18;100.00;46668.22;5033132;28;20060;-63
2023/08/17 09:14:06;;;;;;;6.57;2.97;;;;;;;-145.18;100.00;46672.13;5033077;28;20050;-62
2023/08/17 09:16:31;;;;;;;5.73;2.63;;;;;;;-145.18;100.00;46668.22;5040866;28;20044;-62
2023/08/17 09:18:57;;;;;;;9.23;3.80;;;;;;;-145.18;100.00;46672.13;5033340;28;20033;-62
2023/08/17 09:21:24;;;;;;;4.50;2.70;;;;;;;-145.18;100.00;46670.16;5034302;28;20445;-62
2023/08/17 09:23:54;;;;;;;7.10;3.43;;;;;;;-145.18;100.00;46670.16;5029386;28;20481;-62
2023/08/17 09:26:24;;;;;;;6.77;2.87;;;;;;;-145.18;100.00;46670.16;5037176;28;20021;-62
2023/08/17 09:28:56;;;;;;;11.07;3.10;;;;;;;-145.18;100.00;46676.03;5029690;28;20152;-63
2023/08/17 09:31:24;;;;;;;8.27;2.73;;;;;;;-145.18;100.00;46670.16;5031490;28;20046;-63
2023/08/17 09:33:50;;;;;;;11.13;3.17;;;;;;;-145.18;100.00;46668.22;5030430;28;20111;-63
2023/08/17 09:36:20;;;;;;;6.60;2.90;;;;;;;-145.18;100.00;46656.50;5031964;28;20033;-62
2023/08/17 09:38:57;;;;;;;6.23;3.13;;;;;;;-145.18;100.00;46648.69;5030956;28;20025;-62
2023/08/17 09:41:22;;;;;;;5.20;2.87;;;;;;;-145.18;100.00;46654.53;5031861;28;20473;-62
2023/08/17 09:43:47;;;;;;;6.67;2.90;;;;;;;-145.18;100.00;46662.34;5030650;28;20026;-62
2023/08/17 09:46:14;;;;;;;6.03;3.40;;;;;;;-145.18;100.00;46668.22;5032188;28;20033;-62
2023/08/17 09:48:39;;;;;;;5.80;3.60;;;;;;;-145.18;100.00;46668.22;5030277;28;20033;-62
2023/08/17 09:51:06;;;;;;;5.10;3.27;;;;;;;-145.18;100.00;46668.22;5032186;28;20051;-62
2023/08/17 09:53:36;;;;;;;5.03;2.77;;;;;;;-145.18;100.00;46666.25;5032181;28;20504;-63
2023/08/17 09:56:02;;;;;;;8.53;3.17;;;;;;;-145.18;100.00;46652.59;5030203;28;20033;-62
2023/08/17 09:58:27;;;;;;;10.97;3.37;;;;;;;-145.18;100.00;46646.72;5024322;28;20040;-63
2023/08/17 10:00:54;;;;;;;10.13;2.87;;;;;;;-145.18;100.00;46617.41;5029558;28;20037;-60
2023/08/17 10:03:19;;;;;;;6.93;3.07;;;;;;;-145.18;100.00;46623.28;5025660;28;20096;-60
2023/08/17 10:05:55;;;;;;;6.70;3.07;;;;;;;-145.18;100.00;46646.72;5031965;28;20033;-60
2023/08/17 10:08:22;;;;;;;9.60;3.97;;;;;;;-145.18;100.00;46656.50;5025052;28;20371;-60
2023/08/17 10:10:47;;;;;;;6.13;3.63;;;;;;;-145.18;100.00;46674.06;5024964;28;20071;-60
2023/08/17 10:13:19;;;;;;;9.27;3.73;;;;;;;-145.18;100.00;46674.06;5025683;28;20497;-60
2023/08/17 10:15:57;;;;;;;10.13;4.50;;;;;;;-145.18;100.00;46676.03;5030822;28;20374;-60
2023/08/17 10:18:46;;;;;;;6.10;3.40;;;;;;;-145.18;100.00;46672.13;5029053;28;20563;-60
2023/08/17 10:21:21;;;;;;;8.97;4.03;;;;;;;-145.18;100.00;46670.16;5025266;28;20026;-60
2023/08/17 10:23:47;;;;;;;;;;;;;;;-145.18;100.00;46670.16;5022526;28;20026;-60
2023/08/17 10:26:12;;;;;;;6.97;3.83;;;;;;;-145.18;100.00;46672.13;5019740;28;20024;-60
2023/08/17 10:28:39;;;;;;;7.43;4.17;;;;;;;-145.18;100.00;46666.25;5007071;28;20132;-60
2023/08/17 10:31:05;;;;;;;6.23;3.60;;;;;;;-145.18;100.00;46668.22;5028764;28;20500;-60
2023/08/17 10:33:30;;;;;;;8.53;3.67;;;;;;;-145.18;100.00;46666.25;5030651;28;20059;-59
2023/08/17 10:35:57;;;;;;;8.17;3.67;;;;;;;-145.18;100.00;46662.34;5031561;28;20034;-59
2023/08/17 10:38:22;;;;;;;8.00;3.87;;;;;;;-145.18;100.00;46664.31;5031847;28;20079;-59
2023/08/17 10:41:11;;;;;;;11.40;3.50;;;;;;;-145.18;100.00;46666.25;5031601;28;20033;-59
2023/08/17 10:43:57;;;;;;;10.07;4.50;;;;;;;-145.18;100.00;46672.13;5030523;28;20029;-59
2023/08/17 10:46:33;;;;;;;8.60;3.83;;;;;;;-145.18;100.00;46670.16;5030828;28;20029;-60
2023/08/17 10:49:04;;;;;;;9.20;4.07;;;;;;;-145.18;100.00;46672.13;5019806;28;20034;-60
2023/08/17 10:51:29;;;;;;;7.47;3.50;;;;;;;-145.18;100.00;46668.22;5031783;28;20048;-59
2023/08/17 10:54:00;;;;;;;9.33;4.30;;;;;;;-145.18;100.00;46674.06;5017429;28;20099;-60
2023/08/17 10:56:27;;;;;;;9.40;4.40;;;;;;;-145.18;100.00;46670.16;5015225;28;20034;-60
2023/08/17 10:58:53;;;;;;;6.83;4.20;;;;;;;-145.18;100.00;46676.03;5028318;28;20393;-60
2023/08/17 11:01:40;;;;;;;7.10;3.70;;;;;;;-145.18;100.00;46677.97;5019274;28;20022;-60
2023/08/17 11:04:11;;;;;;;7.20;4.30;;;;;;;-145.18;100.00;46672.13;5015951;28;20513;-60
2023/08/17 11:06:36;;;;;;;9.37;4.00;;;;;;;-145.18;100.00;46672.13;5028183;28;20026;-60